Search for airport 
image banner adimage banner ad
image banner ad

LEOLOC - Olocau

Situé à , Spain

ICAO - , IATA -

Données fournies par Airmate  

Information générale

Coordonnées: N39°40'31" W0°32'56"
Élévation : 680 feet MSL.
 
Voir autres Aéroports à Valencia

Données opérationnelles

Special qualification required
Heure actuelle UTC:
Heure actuelle locale:
Météo à : LEBT - Valencia/Betera ( 9 km )
METAR: LEBT 011930Z AUTO 05007KT 340V110 9999 ////// 12/09 Q1024
Voir NOTAMs / SUP AIP / TFR affectant cet aéroport [VIEW]
Fréquences de communication: [VIEW]

Pistes:

Identifiant RWYQFULongueur (ft)Largeur (ft)SurfaceLDA (ft)
1521330GRAS
3321330GRAS

Coordonnées de l'aéroport

Vue satellite de LEOLOC